Time;durP1;ratioP1;P1;durP2;ratioP2;P2;SDS_P1;SDS_P2;PMS_P1;PMS_P2;Temp;Humidity;BMP_temperature;BMP_pressure;BME280_temperature;BME280_humidity;BME280_pressure;Samples;Min_cycle;Max_cycle;Signal;HPM_P1;HPM_P2
2022/08/17 00:00:13;;;;;;;20.80;12.50;;;;;;;23.72;61.97;98429.46;236884;1195;140615;-59
2022/08/17 00:05:46;;;;;;;23.90;15.50;;;;;;;23.71;61.84;98432.50;237340;1196;140017;-57
2022/08/17 00:10:51;;;;;;;20.40;12.30;;;;;;;23.72;61.83;98431.14;237313;1196;140582;-58
2022/08/17 00:15:58;;;;;;;18.50;11.50;;;;;;;23.71;61.91;98428.38;237491;1195;139856;-58
2022/08/17 00:21:04;;;;;;;22.60;12.20;;;;;;;23.67;61.88;98424.73;237016;1196;140700;-60
2022/08/17 00:26:12;;;;;;;16.30;12.20;;;;;;;23.59;61.83;98422.83;237399;1195;141363;-59
2022/08/17 00:31:16;;;;;;;16.00;11.10;;;;;;;23.49;61.90;98415.67;237377;1196;139772;-57
2022/08/17 00:36:20;;;;;;;16.00;11.90;;;;;;;23.47;62.00;98416.39;237518;1195;141135;-58
2022/08/17 00:41:25;;;;;;;18.70;12.90;;;;;;;23.47;62.25;98428.50;237610;1195;140075;-58
2022/08/17 00:46:33;;;;;;;23.70;13.10;;;;;;;23.49;62.35;98424.65;237425;1196;139682;-59
2022/08/17 00:51:42;;;;;;;19.90;13.80;;;;;;;23.45;62.39;98425.85;237285;1196;139484;-59
2022/08/17 00:56:52;;;;;;;17.90;13.80;;;;;;;23.41;62.57;98428.70;237329;1195;140171;-59
2022/08/17 01:01:56;;;;;;;23.30;13.90;;;;;;;23.35;62.60;98434.08;237323;1195;140150;-59
2022/08/17 01:07:01;;;;;;;21.40;13.10;;;;;;;23.33;62.70;98430.11;237276;1195;140719;-56
2022/08/17 01:12:07;;;;;;;15.70;13.10;;;;;;;23.33;62.74;98429.98;237205;1196;140121;-58
2022/08/17 01:17:11;;;;;;;21.80;13.60;;;;;;;23.27;62.84;98427.80;237467;1194;139653;-58
2022/08/17 01:22:15;;;;;;;21.20;14.50;;;;;;;23.24;62.98;98422.62;237526;1194;140223;-58
2022/08/17 01:27:20;;;;;;;17.50;13.70;;;;;;;23.19;62.97;98418.23;237394;1196;139410;-59
2022/08/17 01:32:25;;;;;;;18.50;13.50;;;;;;;23.16;63.24;98422.44;237291;1196;139808;-59
2022/08/17 01:37:36;;;;;;;19.90;13.20;;;;;;;23.15;63.24;98424.30;237252;1195;140059;-60
2022/08/17 01:42:47;;;;;;;18.10;13.70;;;;;;;23.15;63.27;98423.08;237198;1196;139691;-58
2022/08/17 01:47:51;;;;;;;24.90;15.10;;;;;;;23.07;63.28;98426.18;237229;1196;139820;-62
2022/08/17 01:52:58;;;;;;;24.00;15.30;;;;;;;23.01;63.44;98421.55;237220;1196;139225;-58
2022/08/17 01:58:01;;;;;;;23.00;15.30;;;;;;;22.97;63.45;98419.08;237325;1195;140144;-57
2022/08/17 02:03:06;;;;;;;20.10;14.10;;;;;;;22.94;63.59;98422.46;237539;1195;139798;-58
2022/08/17 02:08:10;;;;;;;19.80;13.60;;;;;;;22.95;63.64;98429.62;237387;1195;141027;-60
2022/08/17 02:13:22;;;;;;;21.10;15.00;;;;;;;22.95;63.66;98435.84;237355;1196;140393;-60
2022/08/17 02:18:26;;;;;;;21.90;15.70;;;;;;;22.92;63.69;98442.85;237369;1196;140111;-60
2022/08/17 02:23:33;;;;;;;23.50;15.50;;;;;;;22.90;63.77;98445.05;237248;1195;140622;-60
2022/08/17 02:28:35;;;;;;;21.40;15.50;;;;;;;22.89;63.76;98441.78;237385;1195;140473;-60
2022/08/17 02:33:39;;;;;;;19.90;14.30;;;;;;;22.83;63.81;98447.59;237540;1195;139628;-60
2022/08/17 02:38:45;;;;;;;20.40;14.90;;;;;;;22.79;63.83;98453.34;237346;1195;140389;-60
2022/08/17 02:43:48;;;;;;;19.10;14.40;;;;;;;22.76;63.84;98456.08;237307;1195;140067;-60
2022/08/17 02:48:51;;;;;;;20.00;14.60;;;;;;;22.71;63.92;98453.98;236953;1195;139172;-59
2022/08/17 02:53:54;;;;;;;17.50;14.50;;;;;;;22.65;64.04;98458.27;237325;1195;139002;-59
2022/08/17 02:59:17;;;;;;;21.00;14.90;;;;;;;22.56;64.08;98453.34;237269;1195;139830;-60
2022/08/17 03:04:21;;;;;;;19.30;13.80;;;;;;;22.51;64.01;98452.21;237195;1196;139590;-59
2022/08/17 03:09:24;;;;;;;18.30;13.10;;;;;;;22.51;64.04;98452.02;237325;1196;140889;-57
2022/08/17 03:14:27;;;;;;;20.80;14.10;;;;;;;22.53;64.08;98448.16;237259;1196;140208;-58
2022/08/17 03:19:30;;;;;;;20.90;14.10;;;;;;;22.49;64.14;98443.94;237491;1195;140497;-59
2022/08/17 03:24:33;;;;;;;18.60;14.30;;;;;;;22.45;64.15;98449.31;237550;1194;140089;-58
2022/08/17 03:29:38;;;;;;;21.20;14.00;;;;;;;22.39;64.07;98448.45;237315;1195;142733;-58
2022/08/17 03:34:41;;;;;;;22.40;14.40;;;;;;;22.31;64.29;98445.41;236949;1196;140348;-56
2022/08/17 03:39:44;;;;;;;20.10;13.50;;;;;;;22.32;64.24;98455.70;237641;1194;139981;-56
2022/08/17 03:44:49;;;;;;;20.70;13.50;;;;;;;22.36;64.34;98460.90;237313;1195;140452;-56
2022/08/17 04:00:44;;;;;;;18.60;15.20;;;;;;;22.24;64.44;98473.27;237523;1195;139497;-59
2022/08/17 04:05:47;;;;;;;19.30;12.60;;;;;;;22.22;64.45;98476.81;237448;1195;140417;-59
2022/08/17 04:10:50;;;;;;;21.80;13.00;;;;;;;22.18;64.37;98482.90;237208;1195;142749;-60
2022/08/17 04:15:53;;;;;;;21.30;13.90;;;;;;;22.13;64.41;98491.77;237358;1196;139988;-60
2022/08/17 04:20:57;;;;;;;19.10;14.80;;;;;;;22.10;64.51;98490.36;237371;1195;140652;-59
2022/08/17 04:26:00;;;;;;;27.80;17.40;;;;;;;22.10;64.86;98482.36;237399;1195;139685;-59
2022/08/17 04:31:03;;;;;;;21.80;16.40;;;;;;;22.12;64.99;98483.48;237342;1195;139955;-60
2022/08/17 04:36:10;;;;;;;22.90;16.10;;;;;;;22.12;64.91;98483.06;237335;1195;139981;-60
2022/08/17 04:46:35;;;;;;;26.90;15.10;;;;;;;22.09;65.00;98489.25;237479;1194;139760;-63
2022/08/17 04:51:42;;;;;;;21.90;16.80;;;;;;;22.13;65.16;98498.13;237497;1195;139556;-62
2022/08/17 04:56:57;;;;;;;25.40;17.20;;;;;;;22.18;65.14;98504.39;237202;1196;139815;-60
2022/08/17 05:02:00;;;;;;;24.70;17.00;;;;;;;22.21;65.25;98501.38;237513;1195;140077;-61
2022/08/17 05:07:03;;;;;;;24.40;16.20;;;;;;;22.27;65.20;98504.98;237362;1195;140364;-60
2022/08/17 05:12:06;;;;;;;24.90;16.00;;;;;;;22.32;65.11;98507.96;237185;1195;140319;-59
2022/08/17 05:17:09;;;;;;;95.20;54.60;;;;;;;22.40;65.15;98511.05;237141;1196;142256;-59
2022/08/17 05:22:13;;;;;;;49.10;38.40;;;;;;;22.52;65.44;98510.48;237398;1195;140528;-60
2022/08/17 05:27:16;;;;;;;28.30;19.20;;;;;;;22.69;65.50;98509.53;237582;1195;139837;-61
2022/08/17 05:32:22;;;;;;;25.20;17.80;;;;;;;22.88;65.50;98506.35;237052;1196;139753;-59
2022/08/17 05:37:41;;;;;;;58.00;43.00;;;;;;;23.05;65.28;98509.09;236939;1195;139573;-59
2022/08/17 05:42:44;;;;;;;23.30;17.10;;;;;;;23.26;65.22;98512.40;237418;1195;141842;-59
2022/08/17 05:47:47;;;;;;;21.10;17.40;;;;;;;23.45;65.09;98515.73;237388;1195;140076;-62
2022/08/17 05:53:09;;;;;;;22.30;16.80;;;;;;;23.56;64.79;98520.25;236462;1196;139914;-61
2022/08/17 05:58:40;;;;;;;23.00;16.40;;;;;;;23.60;64.58;98518.30;237286;1195;140428;-60
2022/08/17 06:04:01;;;;;;;56.70;43.10;;;;;;;23.63;64.49;98522.43;237198;1196;139954;-60
2022/08/17 06:09:32;;;;;;;25.40;17.70;;;;;;;23.67;64.36;98521.83;237404;1195;139995;-58
2022/08/17 06:15:00;;;;;;;25.10;18.00;;;;;;;23.73;64.34;98523.07;237714;1195;139357;-58
2022/08/17 06:20:11;;;;;;;23.50;18.10;;;;;;;23.78;64.32;98519.88;237555;1195;139301;-57
2022/08/17 06:25:32;;;;;;;116.90;93.50;;;;;;;23.81;64.23;98520.16;237209;1196;139509;-57
2022/08/17 06:30:59;;;;;;;26.80;18.10;;;;;;;23.89;64.26;98516.06;237314;1195;140349;-58
2022/08/17 06:36:39;;;;;;;28.80;18.90;;;;;;;24.04;64.23;98518.60;237231;1196;141449;-55
2022/08/17 06:42:25;;;;;;;27.20;19.60;;;;;;;24.14;64.00;98522.79;237458;1195;141851;-57
2022/08/17 06:47:54;;;;;;;86.40;70.00;;;;;;;24.25;64.06;98520.25;237662;1195;139921;-57
2022/08/17 06:53:27;;;;;;;26.40;18.20;;;;;;;24.36;63.92;98524.87;237293;1195;140436;-57
2022/08/17 06:58:32;;;;;;;24.50;16.60;;;;;;;24.42;63.69;98524.59;237126;1196;140025;-58
2022/08/17 07:03:40;;;;;;;;;;;;;;;24.46;63.68;98523.77;237383;1196;140017;-59
2022/08/17 07:08:56;;;;;;;30.30;16.80;;;;;;;24.55;63.74;98531.13;237706;1195;125647;-59
2022/08/17 07:13:59;;;;;;;32.60;17.60;;;;;;;24.66;63.67;98530.83;237324;1195;139757;-60
2022/08/17 07:19:04;;;;;;;21.60;16.10;;;;;;;24.77;63.57;98539.20;237335;1195;140086;-58
2022/08/17 07:24:19;;;;;;;34.00;17.60;;;;;;;24.89;63.44;98534.93;237263;1196;141422;-58
2022/08/17 07:29:38;;;;;;;25.30;17.60;;;;;;;24.97;63.24;98534.91;237386;1195;139913;-58
2022/08/17 07:35:09;;;;;;;24.40;17.90;;;;;;;25.08;63.28;98534.63;237134;1196;140108;-58
2022/08/17 07:40:16;;;;;;;23.10;17.40;;;;;;;25.19;63.15;98531.88;237074;1196;141019;-58
2022/08/17 07:50:41;;;;;;;28.30;18.00;;;;;;;25.39;62.92;98525.86;237133;1195;139477;-57
2022/08/17 07:55:52;;;;;;;29.70;18.20;;;;;;;25.55;62.82;98521.45;237553;1194;139499;-56
2022/08/17 08:01:09;;;;;;;25.30;17.20;;;;;;;25.70;62.85;98520.44;237315;1195;139753;-56
2022/08/17 08:06:23;;;;;;;24.90;16.10;;;;;;;25.83;62.57;98522.55;237257;1195;139652;-59
2022/08/17 08:11:35;;;;;;;27.90;16.00;;;;;;;25.94;62.40;98525.08;237417;1195;139477;-57
2022/08/17 08:16:57;;;;;;;25.50;14.80;;;;;;;26.07;62.29;98522.69;237441;1195;139991;-58
2022/08/17 08:22:08;;;;;;;23.00;15.50;;;;;;;26.21;62.02;98520.70;237205;1196;140216;-57
2022/08/17 08:27:38;;;;;;;24.40;14.80;;;;;;;26.35;61.91;98517.69;237726;1195;139302;-58
2022/08/17 08:33:09;;;;;;;23.70;15.00;;;;;;;26.47;61.82;98517.16;237655;1195;141053;-54
2022/08/17 08:38:35;;;;;;;22.30;14.60;;;;;;;26.60;61.37;98513.18;237259;1195;139955;-55
2022/08/17 08:44:04;;;;;;;85.90;64.60;;;;;;;26.69;61.12;98506.38;237250;1196;139812;-54
2022/08/17 08:49:22;;;;;;;22.50;15.50;;;;;;;26.82;60.92;98503.41;237320;1194;139574;-55
2022/08/17 08:55:15;;;;;;;21.00;14.20;;;;;;;26.96;60.59;98508.17;237007;1196;139808;-57
2022/08/17 09:00:22;;;;;;;23.00;14.80;;;;;;;27.07;60.36;98507.22;236479;1195;139809;-54
2022/08/17 09:05:47;;;;;;;21.70;13.80;;;;;;;27.15;60.17;98505.08;237315;1195;140039;-54
2022/08/17 09:10:56;;;;;;;22.80;14.90;;;;;;;27.21;59.96;98504.61;237561;1195;140033;-55
2022/08/17 09:16:08;;;;;;;17.80;13.80;;;;;;;27.32;59.82;98505.08;237360;1195;140633;-55
2022/08/17 09:21:27;;;;;;;31.00;14.00;;;;;;;27.51;59.86;98497.09;236060;1195;139914;-56
2022/08/17 09:27:02;;;;;;;17.50;13.10;;;;;;;27.53;59.15;98503.67;237206;1195;139777;-53
2022/08/17 09:32:16;;;;;;;17.60;12.60;;;;;;;27.54;58.90;98509.56;237118;1195;139678;-55
2022/08/17 09:37:31;;;;;;;18.60;12.00;;;;;;;27.66;58.70;98507.33;237154;1195;140227;-55
2022/08/17 09:42:46;;;;;;;14.50;10.10;;;;;;;27.73;58.31;98508.84;237062;1196;139890;-55
2022/08/17 09:47:56;;;;;;;19.60;11.10;;;;;;;27.86;57.87;98509.10;237405;1195;139708;-54
2022/08/17 09:53:00;;;;;;;17.80;9.90;;;;;;;28.00;57.55;98513.92;237381;1195;141112;-54
2022/08/17 09:58:22;;;;;;;12.10;8.30;;;;;;;28.01;56.89;98514.17;237000;1195;139877;-56
2022/08/17 10:03:47;;;;;;;13.10;8.90;;;;;;;28.03;56.72;98512.82;237303;1196;139835;-55
2022/08/17 10:08:50;;;;;;;11.10;9.50;;;;;;;28.15;56.43;98510.41;237200;1195;139800;-54
2022/08/17 10:14:13;;;;;;;10.10;8.70;;;;;;;28.05;55.74;98512.12;237166;1195;139353;-55
2022/08/17 10:19:52;;;;;;;33.70;27.80;;;;;;;27.95;55.74;98518.34;237318;1195;140090;-55
2022/08/17 10:30:31;;;;;;;20.20;8.60;;;;;;;28.49;55.47;98505.54;237120;1196;139978;-58
2022/08/17 10:35:51;;;;;;;28.60;10.30;;;;;;;28.83;55.30;98507.81;237006;1196;140359;-59
2022/08/17 10:40:58;;;;;;;27.00;10.60;;;;;;;28.91;54.76;98513.51;237174;1195;139844;-57
2022/08/17 10:46:16;;;;;;;17.00;8.10;;;;;;;28.83;54.41;98513.29;237254;1195;141207;-56
2022/08/17 10:51:40;;;;;;;13.10;7.80;;;;;;;28.84;54.10;98514.70;237372;1196;140168;-58
2022/08/17 10:56:49;;;;;;;80.10;66.50;;;;;;;29.02;53.96;98512.48;237108;1196;140215;-58
2022/08/17 11:02:03;;;;;;;25.40;15.50;;;;;;;29.23;53.31;98510.56;236308;1196;141248;-58
2022/08/17 11:07:17;;;;;;;15.50;9.50;;;;;;;29.29;52.97;98509.75;236554;1195;140042;-58
2022/08/17 11:12:47;;;;;;;11.40;8.90;;;;;;;29.17;52.85;98511.35;236534;1196;139596;-58
2022/08/17 11:18:05;;;;;;;11.70;7.30;;;;;;;29.02;52.71;98507.73;237099;1196;139847;-56
2022/08/17 11:23:49;;;;;;;12.80;9.20;;;;;;;28.88;52.60;98500.04;237020;1195;140785;-58
2022/08/17 11:28:58;;;;;;;89.50;74.80;;;;;;;28.94;52.87;98497.76;236694;1196;139714;-58
2022/08/17 11:34:17;;;;;;;18.60;11.80;;;;;;;29.27;52.99;98492.27;237058;1196;140301;-58
2022/08/17 11:39:36;;;;;;;17.40;8.30;;;;;;;29.60;52.40;98493.97;237281;1195;141286;-57
2022/08/17 11:44:51;;;;;;;13.30;7.80;;;;;;;29.93;51.97;98495.79;237309;1196;139936;-58
2022/08/17 11:55:40;;;;;;;15.30;7.70;;;;;;;30.64;50.76;98490.90;237448;1195;139610;-57
2022/08/17 12:00:50;;;;;;;15.60;11.20;;;;;;;30.92;50.26;98482.84;237269;1196;139433;-58
2022/08/17 12:06:26;;;;;;;22.20;19.90;;;;;;;31.18;49.69;98483.73;237284;1196;141297;-58
2022/08/17 12:11:49;;;;;;;16.10;9.40;;;;;;;31.17;49.20;98488.34;237170;1195;139526;-58
2022/08/17 12:17:19;;;;;;;9.60;7.50;;;;;;;31.15;48.55;98490.43;237185;1196;139303;-58
2022/08/17 12:22:59;;;;;;;11.50;7.90;;;;;;;30.99;48.32;98483.27;237051;1196;139346;-58
2022/08/17 12:28:16;;;;;;;12.60;6.80;;;;;;;31.24;48.30;98472.92;237265;1195;140286;-58
2022/08/17 12:33:24;;;;;;;14.60;7.60;;;;;;;31.53;47.83;98468.31;237568;1195;139678;-58
2022/08/17 12:38:33;;;;;;;13.50;8.00;;;;;;;31.83;47.48;98472.48;237467;1195;139712;-56
2022/08/17 12:43:36;;;;;;;14.30;8.10;;;;;;;31.94;46.99;98473.09;237238;1196;141260;-58
2022/08/17 12:48:39;;;;;;;13.70;7.90;;;;;;;31.61;46.34;98477.99;237132;1196;139408;-58
2022/08/17 12:54:02;;;;;;;10.20;8.40;;;;;;;31.63;46.80;98475.63;237043;1195;140277;-59
2022/08/17 12:59:05;;;;;;;11.90;9.60;;;;;;;31.76;46.49;98473.01;237351;1195;139936;-58
2022/08/17 13:04:14;;;;;;;15.20;8.80;;;;;;;31.52;46.15;98473.04;236633;1196;139176;-58
2022/08/17 13:09:29;;;;;;;11.40;7.30;;;;;;;31.68;46.61;98475.81;237378;1196;140023;-58
2022/08/17 13:14:45;;;;;;;10.40;6.60;;;;;;;32.04;46.36;98476.59;237256;1195;141126;-57
2022/08/17 13:19:49;;;;;;;13.70;7.30;;;;;;;32.19;45.74;98474.31;237424;1195;138961;-57
2022/08/17 13:24:56;;;;;;;12.70;7.80;;;;;;;31.88;45.22;98476.77;237219;1195;139712;-58
2022/08/17 13:30:11;;;;;;;34.60;29.50;;;;;;;31.51;45.41;98472.97;237158;1196;140239;-57
2022/08/17 13:35:28;;;;;;;16.80;9.10;;;;;;;31.53;45.52;98469.63;237183;1196;139692;-58
2022/08/17 13:40:48;;;;;;;123.30;91.20;;;;;;;31.30;45.30;98468.16;237268;1196;139682;-61
2022/08/17 13:45:52;;;;;;;59.30;47.40;;;;;;;31.56;45.82;98461.98;237246;1196;139672;-58
2022/08/17 13:50:55;;;;;;;14.30;8.50;;;;;;;31.66;45.48;98459.95;237195;1195;140448;-58
2022/08/17 13:56:13;;;;;;;11.00;6.90;;;;;;;31.52;44.90;98467.71;237290;1195;140512;-58
2022/08/17 14:01:46;;;;;;;9.00;7.10;;;;;;;31.44;45.01;98479.59;237324;1196;139893;-58
2022/08/17 14:07:18;;;;;;;10.30;6.70;;;;;;;31.51;45.38;98480.83;237222;1196;139260;-58
2022/08/17 14:12:23;;;;;;;11.10;7.20;;;;;;;31.44;44.88;98479.92;237273;1195;139794;-59
2022/08/17 14:17:28;;;;;;;36.50;28.60;;;;;;;31.31;44.75;98482.77;237389;1195;139624;-59
2022/08/17 14:22:34;;;;;;;10.40;7.90;;;;;;;31.20;44.88;98480.93;237339;1195;140405;-59
2022/08/17 14:27:37;;;;;;;12.20;7.30;;;;;;;31.30;44.96;98473.77;237394;1195;140049;-58
2022/08/17 14:32:56;;;;;;;13.00;6.70;;;;;;;31.37;44.89;98472.79;237265;1195;140630;-57
2022/08/17 14:38:04;;;;;;;11.50;6.90;;;;;;;31.43;44.87;98472.80;237167;1196;141426;-58
2022/08/17 14:43:07;;;;;;;8.70;6.60;;;;;;;31.44;44.81;98472.86;237241;1196;139967;-58
2022/08/17 14:48:10;;;;;;;15.20;7.30;;;;;;;31.27;44.20;98470.96;236982;1196;139365;-58
2022/08/17 14:53:15;;;;;;;43.10;33.30;;;;;;;30.89;44.37;98473.42;237068;1195;140015;-58
2022/08/17 14:58:18;;;;;;;274.70;199.30;;;;;;;30.72;44.36;98478.89;237362;1195;139924;-58
2022/08/17 15:03:22;;;;;;;51.20;39.10;;;;;;;30.57;44.59;98482.44;237368;1195;140782;-58
2022/08/17 15:08:25;;;;;;;41.10;34.50;;;;;;;30.43;44.58;98480.66;237285;1195;139697;-57
2022/08/17 15:13:28;;;;;;;31.70;25.80;;;;;;;30.33;44.90;98484.45;237293;1195;139892;-57
2022/08/17 15:18:31;;;;;;;13.80;7.00;;;;;;;30.29;45.10;98483.08;237424;1195;139669;-58
2022/08/17 15:23:35;;;;;;;10.00;6.80;;;;;;;30.18;45.10;98476.58;237408;1194;140432;-58
2022/08/17 15:28:37;;;;;;;19.60;14.20;;;;;;;30.10;45.15;98478.11;237264;1196;142075;-59
2022/08/17 15:33:40;;;;;;;9.50;6.50;;;;;;;30.05;45.00;98484.61;237373;1195;139152;-59
2022/08/17 15:38:44;;;;;;;11.20;6.70;;;;;;;29.96;45.13;98483.93;237434;1195;140947;-58
2022/08/17 15:43:51;;;;;;;12.50;6.60;;;;;;;29.88;45.06;98489.12;237362;1195;140613;-58
2022/08/17 15:48:58;;;;;;;17.00;7.50;;;;;;;29.71;45.00;98489.36;237277;1195;139630;-58
2022/08/17 15:54:09;;;;;;;11.60;7.90;;;;;;;29.52;45.74;98489.46;237150;1196;140306;-58
2022/08/17 15:59:24;;;;;;;11.00;8.40;;;;;;;29.51;46.62;98500.57;237291;1196;140936;-58
2022/08/17 16:04:27;;;;;;;12.60;8.00;;;;;;;29.47;46.86;98510.87;237260;1195;140569;-56
2022/08/17 16:09:33;;;;;;;22.20;14.00;;;;;;;29.37;47.43;98523.09;237500;1195;140168;-57
2022/08/17 16:14:36;;;;;;;24.40;19.10;;;;;;;29.20;47.76;98521.71;237406;1195;139630;-58
2022/08/17 16:19:40;;;;;;;10.70;8.10;;;;;;;29.13;48.13;98523.50;237312;1195;139772;-58
2022/08/17 16:24:45;;;;;;;37.30;32.90;;;;;;;29.04;48.22;98522.36;237203;1195;139473;-57
2022/08/17 16:29:59;;;;;;;23.80;21.00;;;;;;;28.98;48.63;98527.01;237202;1196;139623;-57
2022/08/17 16:35:06;;;;;;;14.50;8.90;;;;;;;28.96;48.92;98532.71;237216;1195;139928;-58
2022/08/17 16:40:10;;;;;;;10.70;9.20;;;;;;;28.90;49.00;98540.05;236625;1196;141331;-57
2022/08/17 16:45:22;;;;;;;9.40;7.90;;;;;;;28.84;49.33;98540.59;237038;1196;139269;-58
2022/08/17 16:50:25;;;;;;;10.20;8.20;;;;;;;28.80;49.49;98542.73;237134;1195;138990;-58
2022/08/17 16:55:28;;;;;;;17.10;9.00;;;;;;;28.74;49.66;98547.76;237204;1196;139932;-58
2022/08/17 17:00:32;;;;;;;9.50;8.50;;;;;;;28.72;49.90;98547.95;237204;1195;141055;-58
2022/08/17 17:06:06;;;;;;;16.40;8.60;;;;;;;28.68;49.96;98555.65;237102;1195;139243;-59
2022/08/17 17:11:14;;;;;;;13.40;9.40;;;;;;;28.55;50.03;98551.63;237351;1195;140242;-57
2022/08/17 17:16:45;;;;;;;15.30;8.70;;;;;;;28.46;50.10;98557.34;237337;1195;138998;-57
2022/08/17 17:22:02;;;;;;;11.30;8.90;;;;;;;28.40;50.34;98552.73;237518;1195;139590;-58
2022/08/17 17:27:35;;;;;;;10.30;8.60;;;;;;;28.37;50.37;98552.23;237421;1195;140127;-58
2022/08/17 17:33:02;;;;;;;10.90;8.50;;;;;;;28.32;50.46;98563.23;236994;1196;139895;-59
2022/08/17 17:38:11;;;;;;;12.40;8.90;;;;;;;28.25;50.56;98574.44;237286;1195;142031;-58
2022/08/17 17:43:18;;;;;;;14.40;7.60;;;;;;;28.16;50.65;98576.13;237331;1195;140224;-57
2022/08/17 17:48:40;;;;;;;151.60;135.00;;;;;;;28.10;50.87;98582.44;237091;1195;140096;-58
2022/08/17 17:54:22;;;;;;;47.40;41.50;;;;;;;28.09;51.09;98586.02;237239;1195;140366;-58
2022/08/17 17:59:33;;;;;;;23.50;12.10;;;;;;;27.99;51.11;98591.55;237154;1195;140208;-57
2022/08/17 18:04:47;;;;;;;20.90;12.70;;;;;;;27.86;51.35;98599.90;237538;1195;140332;-58
2022/08/17 18:10:02;;;;;;;13.90;10.30;;;;;;;27.74;51.60;98601.98;237391;1195;139982;-56
2022/08/17 18:15:34;;;;;;;16.80;10.10;;;;;;;27.66;51.75;98605.92;237387;1195;140442;-58
2022/08/17 18:20:37;;;;;;;17.10;9.80;;;;;;;27.57;51.89;98611.54;237347;1195;140490;-58
2022/08/17 18:25:57;;;;;;;15.40;9.50;;;;;;;27.47;52.17;98615.83;237171;1196;139510;-58
2022/08/17 18:31:06;;;;;;;;;;;;;;;27.39;52.36;98617.14;236786;1196;139772;-58
2022/08/17 18:36:10;;;;;;;18.00;10.30;;;;;;;27.29;52.77;98616.32;236836;1196;125988;-59
2022/08/17 18:41:29;;;;;;;21.10;9.90;;;;;;;27.22;52.94;98617.38;237322;1196;140091;-59
2022/08/17 18:46:35;;;;;;;360.50;322.20;;;;;;;27.14;53.12;98619.38;237115;1196;139799;-59
2022/08/17 18:51:40;;;;;;;59.70;51.40;;;;;;;27.10;53.48;98621.45;236124;1195;139808;-57
2022/08/17 18:56:54;;;;;;;15.50;12.80;;;;;;;27.05;53.76;98619.89;237174;1195;140948;-57
2022/08/17 19:02:00;;;;;;;16.40;11.00;;;;;;;26.95;54.04;98616.88;236237;1195;139962;-56
2022/08/17 19:07:15;;;;;;;15.80;9.70;;;;;;;26.83;54.33;98618.73;237346;1195;139773;-57
2022/08/17 19:12:38;;;;;;;18.00;10.70;;;;;;;26.75;54.52;98620.36;236956;1195;139735;-56
2022/08/17 19:17:54;;;;;;;12.70;10.80;;;;;;;26.68;54.69;98623.89;237450;1195;140245;-56
2022/08/17 19:23:21;;;;;;;248.60;208.00;;;;;;;26.62;54.99;98624.94;236695;1195;140902;-55
2022/08/17 19:28:35;;;;;;;25.30;19.60;;;;;;;26.62;55.10;98624.47;237032;1196;140397;-56
2022/08/17 19:33:38;;;;;;;19.20;12.20;;;;;;;26.58;55.27;98624.46;236898;1195;141658;-56
2022/08/17 19:38:50;;;;;;;15.90;11.10;;;;;;;26.51;55.52;98631.77;235719;1195;140444;-56
2022/08/17 19:44:13;;;;;;;15.80;10.90;;;;;;;26.40;55.67;98639.48;237408;1195;140085;-56
2022/08/17 19:49:45;;;;;;;40.90;29.80;;;;;;;26.24;55.86;98646.66;237386;1195;140477;-56
2022/08/17 19:54:59;;;;;;;16.10;10.90;;;;;;;26.17;56.01;98653.64;237509;1195;140037;-55
2022/08/17 20:00:12;;;;;;;16.00;12.10;;;;;;;26.09;56.29;98655.46;237364;1195;139598;-58
2022/08/17 20:05:32;;;;;;;17.80;11.50;;;;;;;25.98;56.53;98658.86;237157;1195;140303;-57
2022/08/17 20:11:01;;;;;;;18.50;11.50;;;;;;;25.86;56.70;98651.39;237479;1195;139850;-57
2022/08/17 20:16:05;;;;;;;20.70;11.50;;;;;;;25.75;56.87;98649.72;237692;1195;140674;-57
2022/08/17 20:21:36;;;;;;;17.20;10.50;;;;;;;25.65;57.07;98649.23;237543;1195;139871;-57
2022/08/17 20:26:56;;;;;;;17.60;10.80;;;;;;;25.58;57.26;98656.41;237243;1195;140454;-56
2022/08/17 20:32:01;;;;;;;16.70;11.40;;;;;;;25.53;57.48;98665.18;237099;1196;140077;-57
2022/08/17 20:37:13;;;;;;;19.40;11.50;;;;;;;25.46;57.57;98664.94;237195;1195;140248;-57
2022/08/17 20:42:18;;;;;;;16.10;12.00;;;;;;;25.39;57.83;98660.79;237196;1196;139759;-57
2022/08/17 20:47:29;;;;;;;16.10;12.10;;;;;;;25.32;57.92;98669.74;237436;1195;139697;-56
2022/08/17 20:52:52;;;;;;;22.10;11.30;;;;;;;25.23;57.98;98671.56;237063;1195;139555;-57
2022/08/17 20:57:55;;;;;;;17.40;12.10;;;;;;;25.17;58.24;98669.21;237288;1195;140885;-58
2022/08/17 21:03:22;;;;;;;16.60;12.10;;;;;;;25.12;58.40;98659.36;237431;1195;140376;-57
2022/08/17 21:08:28;;;;;;;15.00;12.30;;;;;;;25.08;58.62;98656.63;237674;1195;139553;-57
2022/08/17 21:13:47;;;;;;;17.60;13.10;;;;;;;25.01;58.54;98654.23;237288;1195;140394;-56
2022/08/17 21:19:07;;;;;;;16.40;12.60;;;;;;;24.92;58.72;98645.73;237123;1196;139966;-57
2022/08/17 21:24:19;;;;;;;15.40;12.30;;;;;;;24.83;58.84;98652.36;237287;1195;140288;-58
2022/08/17 21:29:24;;;;;;;14.60;12.40;;;;;;;24.78;58.85;98657.55;237279;1195;140953;-59
2022/08/17 21:34:43;;;;;;;19.80;13.10;;;;;;;24.74;58.99;98667.95;237007;1195;139480;-59
2022/08/17 21:39:50;;;;;;;16.30;12.90;;;;;;;24.68;59.02;98667.17;237293;1195;140105;-59
2022/08/17 21:44:59;;;;;;;18.30;13.20;;;;;;;24.60;59.23;98663.88;237202;1195;139654;-58
2022/08/17 21:50:23;;;;;;;21.00;13.00;;;;;;;24.51;59.29;98662.20;237285;1195;140953;-58
2022/08/17 21:55:29;;;;;;;14.40;11.90;;;;;;;24.43;59.36;98656.34;236206;1195;139530;-57
2022/08/17 22:00:32;;;;;;;18.30;12.30;;;;;;;24.40;59.56;98654.58;236699;1196;139944;-62
2022/08/17 22:05:38;;;;;;;17.70;13.40;;;;;;;24.39;59.76;98640.86;237309;1195;141134;-58
2022/08/17 22:10:44;;;;;;;16.20;13.10;;;;;;;24.38;59.98;98649.16;237379;1195;139411;-58
2022/08/17 22:16:12;;;;;;;18.40;13.60;;;;;;;24.37;59.95;98641.16;237202;1195;140301;-58
2022/08/17 22:21:30;;;;;;;20.10;13.20;;;;;;;24.31;60.01;98633.67;237330;1195;139987;-58
2022/08/17 22:26:58;;;;;;;21.30;13.10;;;;;;;24.25;59.97;98635.48;237008;1196;140367;-58
2022/08/17 22:32:02;;;;;;;19.70;12.30;;;;;;;24.18;60.15;98626.08;236950;1195;139526;-58
2022/08/17 22:37:26;;;;;;;21.60;12.70;;;;;;;24.15;60.26;98621.60;237488;1195;140612;-58
2022/08/17 22:42:30;;;;;;;18.30;13.40;;;;;;;24.11;60.37;98622.31;237362;1194;140143;-58
2022/08/17 22:47:38;;;;;;;14.60;12.50;;;;;;;24.05;60.45;98631.58;237325;1195;140084;-57
2022/08/17 23:03:54;;;;;;;;;;;;;;;23.90;60.75;98629.46;237056;1196;140468;-60
2022/08/17 23:08:57;;;;;;;21.00;12.50;;;;;;;23.85;60.97;98627.33;237269;1195;125594;-58
2022/08/17 23:14:01;;;;;;;15.30;13.40;;;;;;;23.82;61.10;98618.43;237365;1195;140335;-57
2022/08/17 23:19:04;;;;;;;21.10;13.60;;;;;;;23.80;61.09;98630.34;237295;1195;139782;-58
2022/08/17 23:24:07;;;;;;;15.40;12.10;;;;;;;23.73;61.10;98636.95;237296;1195;140772;-56
2022/08/17 23:29:10;;;;;;;16.10;12.10;;;;;;;23.70;61.06;98642.73;237494;1195;140434;-58
2022/08/17 23:34:17;;;;;;;15.50;12.40;;;;;;;23.69;61.18;98645.04;237426;1195;140288;-57
2022/08/17 23:39:21;;;;;;;18.30;13.70;;;;;;;23.69;61.44;98637.86;237148;1196;139598;-58
2022/08/17 23:44:30;;;;;;;18.80;13.50;;;;;;;23.67;61.46;98639.70;237292;1195;140506;-58
2022/08/17 23:49:35;;;;;;;20.20;14.20;;;;;;;23.64;61.63;98636.22;237404;1195;140173;-57
2022/08/17 23:54:42;;;;;;;17.10;12.80;;;;;;;23.63;61.79;98636.88;237011;1195;139849;-59
2022/08/17 23:59:46;;;;;;;17.10;14.50;;;;;;;23.67;61.99;98650.32;237188;1196;140360;-57
